Aviation Digital Data Service (ADDS)

Output produced by METARs form (0934 UTC 28 November 2014)
found at http://aviationweather.gov/adds/metars/
 
KPVD 280930Z 2810/2906 32010KT P6SM SCT040 OVC070 
     FM281600 33010KT P6SM SCT120 
     FM290000 31006KT P6SM SCT250